createdAt,value
2018-07-06T00:01:05.310Z,15.23
2018-07-06T00:03:44.991Z,17.77
2018-07-06T00:06:24.687Z,15.60
2018-07-06T00:09:04.745Z,14.17
2018-07-06T00:11:44.375Z,16.33
2018-07-06T00:14:23.933Z,13.60
2018-07-06T00:17:03.410Z,15.93
2018-07-06T00:19:43.040Z,14.57
2018-07-06T00:22:22.759Z,12.30
2018-07-06T00:25:02.328Z,13.53
2018-07-06T00:27:41.895Z,14.17
2018-07-06T00:30:21.713Z,10.80
2018-07-06T00:33:01.393Z,12.27
2018-07-06T00:35:41.057Z,15.30
2018-07-06T00:38:20.699Z,14.17
2018-07-06T00:41:00.333Z,19.07
2018-07-06T00:43:39.875Z,18.63
2018-07-06T00:46:19.492Z,16.90
2018-07-06T00:48:53.300Z,17.20
2018-07-06T00:51:26.943Z,18.00
2018-07-06T00:54:06.427Z,19.20
2018-07-06T00:56:40.216Z,17.00
2018-07-06T00:59:19.769Z,19.20
2018-07-06T01:01:53.545Z,20.20
2018-07-06T01:04:32.981Z,18.57
2018-07-06T01:07:13.764Z,20.53
2018-07-06T01:09:53.450Z,22.07
2018-07-06T01:12:38.541Z,23.20
2018-07-06T01:15:48.871Z,23.43
2018-07-06T01:18:28.383Z,22.73
2018-07-06T01:21:07.900Z,26.70
2018-07-06T01:23:47.591Z,25.27
2018-07-06T01:26:27.272Z,21.97
2018-07-06T01:29:06.947Z,25.93
2018-07-06T01:31:46.605Z,22.93
2018-07-06T01:34:26.452Z,25.57
2018-07-06T01:37:05.985Z,29.43
2018-07-06T01:39:45.547Z,29.40
2018-07-06T01:42:25.346Z,24.77
2018-07-06T01:45:05.162Z,24.47
2018-07-06T01:47:44.699Z,23.33
2018-07-06T01:50:24.625Z,28.93
2018-07-06T01:53:04.119Z,23.47
2018-07-06T01:55:43.882Z,24.10
2018-07-06T01:58:23.393Z,21.80
2018-07-06T02:01:03.059Z,23.77
2018-07-06T02:03:42.843Z,24.40
2018-07-06T02:06:16.328Z,24.73
2018-07-06T02:08:55.871Z,23.67
2018-07-06T02:11:36.129Z,20.77
2018-07-06T02:14:16.158Z,25.97
2018-07-06T02:16:55.791Z,27.00
2018-07-06T02:19:35.415Z,25.30
2018-07-06T02:22:15.055Z,27.47
2018-07-06T02:24:54.730Z,25.73
2018-07-06T02:27:34.367Z,27.23
2018-07-06T02:30:14.318Z,29.83
2018-07-06T02:32:53.842Z,24.40
2018-07-06T02:35:33.455Z,27.77
2018-07-06T02:38:13.171Z,25.93
2018-07-06T02:40:52.774Z,29.80
2018-07-06T02:43:32.512Z,23.33
2018-07-06T02:46:12.264Z,29.23
2018-07-06T02:48:51.959Z,23.23
2018-07-06T02:51:31.623Z,25.53
2018-07-06T02:54:11.415Z,23.87
2018-07-06T02:56:51.496Z,24.77
2018-07-06T02:59:31.135Z,30.00
2018-07-06T03:02:10.772Z,31.83
2018-07-06T03:04:50.442Z,30.63
2018-07-06T03:07:30.135Z,29.80
2018-07-06T03:10:09.968Z,21.67
2018-07-06T03:12:49.529Z,13.90
2018-07-06T03:15:29.233Z,15.00
2018-07-06T03:18:08.864Z,14.00
2018-07-06T03:20:48.555Z,20.83
2018-07-06T03:23:28.005Z,15.37
2018-07-06T03:26:07.614Z,19.67
2018-07-06T03:28:47.308Z,16.17
2018-07-06T03:31:26.706Z,25.27
2018-07-06T03:34:06.448Z,27.33
2018-07-06T03:36:45.926Z,30.37
2018-07-06T03:39:25.626Z,18.83
2018-07-06T03:42:05.344Z,15.87
2018-07-06T03:44:44.906Z,16.00
2018-07-06T03:47:24.456Z,24.73
2018-07-06T03:50:04.016Z,33.07
2018-07-06T03:52:43.668Z,35.33
2018-07-06T03:55:23.352Z,35.53
2018-07-06T03:58:04.173Z,34.70
2018-07-06T04:00:43.901Z,23.63
2018-07-06T04:03:23.454Z,34.97
2018-07-06T04:06:03.160Z,28.53
2018-07-06T04:08:42.930Z,36.07
2018-07-06T04:11:22.516Z,33.50
2018-07-06T04:14:02.030Z,33.23
2018-07-06T04:16:41.757Z,33.30
2018-07-06T04:19:21.526Z,34.07
2018-07-06T04:22:01.163Z,35.43
2018-07-06T04:24:40.792Z,36.60
2018-07-06T04:27:20.475Z,37.23
2018-07-06T04:30:00.011Z,29.30
2018-07-06T04:32:39.680Z,37.83
2018-07-06T04:35:19.398Z,19.83
2018-07-06T04:37:58.926Z,21.27
2018-07-06T04:40:38.365Z,34.67
2018-07-06T04:43:17.934Z,35.73
2018-07-06T04:45:57.512Z,34.80
2018-07-06T04:48:36.998Z,34.43
2018-07-06T04:51:16.494Z,34.17
2018-07-06T04:53:56.291Z,37.53
2018-07-06T04:56:35.861Z,22.83
2018-07-06T04:59:15.568Z,33.07
2018-07-06T05:01:55.109Z,37.87
2018-07-06T05:04:34.709Z,37.73
2018-07-06T05:07:14.411Z,37.53
2018-07-06T05:09:54.045Z,33.43
2018-07-06T05:12:33.729Z,35.97
2018-07-06T05:15:13.128Z,35.20
2018-07-06T05:17:46.803Z,32.07
2018-07-06T05:20:26.720Z,37.27
2018-07-06T05:23:06.884Z,34.50
2018-07-06T05:25:46.413Z,33.87
2018-07-06T05:28:26.110Z,34.57
2018-07-06T05:31:05.682Z,38.93
2018-07-06T05:33:45.326Z,35.90
2018-07-06T05:36:24.976Z,36.33
2018-07-06T05:39:05.434Z,35.47
2018-07-06T05:41:45.005Z,37.23
2018-07-06T05:44:24.988Z,36.50
2018-07-06T05:47:04.658Z,40.30
2018-07-06T05:49:44.492Z,34.83
2018-07-06T05:52:24.076Z,35.33
2018-07-06T05:55:03.620Z,35.10
2018-07-06T05:57:43.140Z,33.77
2018-07-06T06:00:22.678Z,29.63
2018-07-06T06:02:56.324Z,38.17
2018-07-06T06:05:36.003Z,33.60
2018-07-06T06:08:03.640Z,33.17
2018-07-06T06:10:32.274Z,35.27
2018-07-06T06:13:01.205Z,33.97
2018-07-06T06:15:29.520Z,31.33
2018-07-06T06:17:58.369Z,32.40
2018-07-06T06:20:26.699Z,32.17
2018-07-06T06:22:55.116Z,33.67
2018-07-06T06:25:23.768Z,34.40
2018-07-06T06:27:52.143Z,30.60
2018-07-06T06:30:20.547Z,34.27
2018-07-06T06:32:49.129Z,30.93
2018-07-06T06:35:17.331Z,32.33
2018-07-06T06:37:45.859Z,31.87
2018-07-06T06:40:14.105Z,30.03
2018-07-06T06:42:42.551Z,23.50
2018-07-06T06:45:10.888Z,28.80
2018-07-06T06:47:39.463Z,26.83
2018-07-06T06:50:08.492Z,25.57
2018-07-06T06:52:37.184Z,21.40
2018-07-06T06:55:05.580Z,26.63
2018-07-06T06:57:34.002Z,23.43
2018-07-06T07:00:02.363Z,24.70
2018-07-06T07:02:30.796Z,19.73
2018-07-06T07:04:59.218Z,24.00
2018-07-06T07:07:27.972Z,20.97
2018-07-06T07:09:56.331Z,23.20
2018-07-06T07:12:24.835Z,15.03
2018-07-06T07:14:53.368Z,21.27
2018-07-06T07:17:21.856Z,18.63
2018-07-06T07:19:50.297Z,14.90
2018-07-06T07:22:19.249Z,17.30
2018-07-06T07:24:47.783Z,18.30
2018-07-06T07:27:16.316Z,18.63
2018-07-06T07:29:45.251Z,13.57
2018-07-06T07:32:13.860Z,17.03
2018-07-06T07:34:42.312Z,16.90
2018-07-06T07:37:10.712Z,17.00
2018-07-06T07:39:39.172Z,17.17
2018-07-06T07:42:07.618Z,12.03
2018-07-06T07:44:35.976Z,11.93
2018-07-06T07:47:04.386Z,14.67
2018-07-06T07:49:32.730Z,13.80
2018-07-06T07:52:13.136Z,13.90
2018-07-06T07:54:50.438Z,14.70
2018-07-06T07:57:19.822Z,13.87
2018-07-06T07:59:49.049Z,14.80
2018-07-06T08:02:17.563Z,13.70
2018-07-06T08:04:46.416Z,13.23
2018-07-06T08:07:14.802Z,12.37
2018-07-06T08:09:43.755Z,12.80
2018-07-06T08:12:12.342Z,12.47
2018-07-06T08:14:40.792Z,11.43
2018-07-06T08:17:09.156Z,11.93
2018-07-06T08:19:37.641Z,12.67
2018-07-06T08:22:06.020Z,7.47
2018-07-06T08:24:34.118Z,10.77
2018-07-06T08:27:02.543Z,8.93
2018-07-06T08:29:30.880Z,8.80
2018-07-06T08:31:59.264Z,10.20
2018-07-06T08:34:38.976Z,10.80
2018-07-06T08:37:29.748Z,9.57
2018-07-06T08:39:58.662Z,9.50
2018-07-06T08:42:29.165Z,7.03
2018-07-06T08:44:58.377Z,7.97
2018-07-06T08:47:26.750Z,8.77
2018-07-06T08:49:55.938Z,8.80
2018-07-06T08:52:24.286Z,9.40
2018-07-06T08:54:52.956Z,8.13
2018-07-06T08:57:22.604Z,7.77
2018-07-06T08:59:51.491Z,5.43
2018-07-06T09:02:19.905Z,6.03
2018-07-06T09:04:48.970Z,6.63
2018-07-06T09:07:17.436Z,3.17
2018-07-06T09:09:46.084Z,4.00
2018-07-06T09:12:14.175Z,4.37
2018-07-06T09:14:42.720Z,5.50
2018-07-06T09:17:12.810Z,5.40
2018-07-06T09:19:41.691Z,5.23
2018-07-06T09:22:10.168Z,3.00
2018-07-06T09:24:38.607Z,4.30
2018-07-06T09:27:07.049Z,3.97
2018-07-06T09:29:35.520Z,4.20
2018-07-06T09:32:04.001Z,3.73
2018-07-06T09:34:32.355Z,2.77
2018-07-06T09:37:01.407Z,2.90
2018-07-06T09:39:29.783Z,3.13
2018-07-06T09:41:58.244Z,2.83
2018-07-06T09:44:26.679Z,3.33
2018-07-06T09:46:55.039Z,2.93
2018-07-06T09:49:23.519Z,2.73
2018-07-06T09:51:51.741Z,2.33
2018-07-06T09:54:20.084Z,2.33
2018-07-06T09:56:48.427Z,2.73
2018-07-06T09:59:17.191Z,1.93
2018-07-06T10:01:45.656Z,2.30
2018-07-06T10:04:14.086Z,2.77
2018-07-06T10:06:42.444Z,3.00
2018-07-06T10:09:11.325Z,3.03
2018-07-06T10:11:40.612Z,2.03
2018-07-06T10:14:08.999Z,1.97
2018-07-06T10:16:37.373Z,1.70
2018-07-06T10:19:05.823Z,1.43
2018-07-06T10:21:34.259Z,1.70
2018-07-06T10:24:02.643Z,1.30
2018-07-06T10:26:30.995Z,2.00
2018-07-06T10:29:41.614Z,2.23
2018-07-06T10:32:26.727Z,2.10
2018-07-06T10:34:55.324Z,2.27
2018-07-06T10:37:23.968Z,2.90
2018-07-06T10:39:52.771Z,2.83
2018-07-06T10:42:20.980Z,1.80
2018-07-06T10:44:49.368Z,1.40
2018-07-06T10:47:17.689Z,2.17
2018-07-06T10:49:46.045Z,1.40
2018-07-06T10:52:15.099Z,1.73
2018-07-06T10:54:43.885Z,1.97
2018-07-06T10:57:12.435Z,1.40
2018-07-06T10:59:40.829Z,1.57
2018-07-06T11:02:09.231Z,1.20
2018-07-06T11:04:37.623Z,1.10
2018-07-06T11:07:06.338Z,1.37
2018-07-06T11:09:35.422Z,1.03
2018-07-06T11:12:03.876Z,0.90
2018-07-06T11:14:32.227Z,1.83
2018-07-06T11:17:07.395Z,1.60
2018-07-06T11:19:35.746Z,1.70
2018-07-06T11:22:04.229Z,1.93
2018-07-06T11:24:32.632Z,2.40
2018-07-06T11:27:01.019Z,2.60
2018-07-06T11:29:29.422Z,2.60
2018-07-06T11:31:57.790Z,2.50
2018-07-06T11:34:26.140Z,3.00
2018-07-06T11:36:54.510Z,2.73
2018-07-06T11:39:22.880Z,2.07
2018-07-06T11:41:51.251Z,3.27
2018-07-06T11:44:20.314Z,3.30
2018-07-06T11:46:48.663Z,2.93
2018-07-06T11:49:17.128Z,2.90
2018-07-06T11:51:45.516Z,3.17
2018-07-06T11:54:13.887Z,3.20
2018-07-06T11:56:42.259Z,3.50
2018-07-06T11:59:10.659Z,3.10
2018-07-06T12:01:39.068Z,3.33
2018-07-06T12:04:07.536Z,3.37
2018-07-06T12:06:35.836Z,4.77
2018-07-06T12:09:04.878Z,4.20
2018-07-06T12:11:33.414Z,4.47
2018-07-06T12:14:01.910Z,3.03
2018-07-06T12:16:30.238Z,3.87
2018-07-06T12:18:58.656Z,4.20
2018-07-06T12:21:27.044Z,3.23
2018-07-06T12:23:55.398Z,3.40
2018-07-06T12:26:23.832Z,3.23
2018-07-06T12:28:52.151Z,4.00
2018-07-06T12:31:20.533Z,3.27
2018-07-06T12:33:48.906Z,3.30
2018-07-06T12:36:17.248Z,3.27
2018-07-06T12:38:46.288Z,3.90
2018-07-06T12:41:14.670Z,4.07
2018-07-06T12:43:43.045Z,4.07
2018-07-06T12:46:11.468Z,2.93
2018-07-06T12:48:39.862Z,3.53
2018-07-06T12:51:08.228Z,3.60
2018-07-06T12:53:36.585Z,3.20
2018-07-06T12:56:05.054Z,3.40
2018-07-06T12:58:33.132Z,3.53
2018-07-06T13:01:01.594Z,3.40
2018-07-06T13:03:30.556Z,2.60
2018-07-06T13:05:58.978Z,3.80
2018-07-06T13:08:27.364Z,3.37
2018-07-06T13:10:55.793Z,3.03
2018-07-06T13:13:24.176Z,3.17
2018-07-06T13:15:52.540Z,2.43
2018-07-06T13:18:20.986Z,3.20
2018-07-06T13:20:49.518Z,3.63
2018-07-06T13:23:17.877Z,3.50
2018-07-06T13:25:46.265Z,2.80
2018-07-06T13:28:14.692Z,3.53
2018-07-06T13:30:43.072Z,3.07
2018-07-06T13:33:11.424Z,3.67
2018-07-06T13:35:39.839Z,2.80
2018-07-06T13:38:08.186Z,3.63
2018-07-06T13:40:37.101Z,2.77
2018-07-06T13:43:05.439Z,3.80
2018-07-06T13:45:33.810Z,4.23
2018-07-06T13:48:02.194Z,3.87
2018-07-06T13:50:30.712Z,3.70
2018-07-06T13:52:59.123Z,3.67
2018-07-06T13:55:27.476Z,4.20
2018-07-06T13:57:55.836Z,3.43
2018-07-06T14:00:24.233Z,4.13
2018-07-06T14:02:52.820Z,4.67
2018-07-06T14:05:21.228Z,4.10
2018-07-06T14:07:49.716Z,5.20
2018-07-06T14:10:18.110Z,5.00
2018-07-06T14:12:46.459Z,4.37
2018-07-06T14:15:14.796Z,4.83
2018-07-06T14:17:43.373Z,4.80
2018-07-06T14:20:11.797Z,4.50
2018-07-06T14:22:40.323Z,4.63
2018-07-06T14:25:08.742Z,5.00
2018-07-06T14:27:37.095Z,5.30
2018-07-06T14:30:06.284Z,5.20
2018-07-06T14:32:34.649Z,4.93
2018-07-06T14:35:03.146Z,5.20
2018-07-06T14:37:31.503Z,5.57
2018-07-06T14:39:59.849Z,5.97
2018-07-06T14:42:28.231Z,5.60
2018-07-06T14:44:56.598Z,4.47
2018-07-06T14:47:24.952Z,5.00
2018-07-06T14:49:53.329Z,5.63
2018-07-06T14:52:21.713Z,5.20
2018-07-06T14:54:50.177Z,5.33
2018-07-06T14:57:18.548Z,5.83
2018-07-06T14:59:47.105Z,6.13
2018-07-06T15:02:15.576Z,5.60
2018-07-06T15:04:43.948Z,5.33
2018-07-06T15:07:12.326Z,5.77
2018-07-06T15:09:47.226Z,5.43
2018-07-06T15:12:15.587Z,5.90
2018-07-06T15:14:44.060Z,5.07
2018-07-06T15:17:12.420Z,5.73
2018-07-06T15:19:40.826Z,5.40
2018-07-06T15:22:09.210Z,5.53
2018-07-06T15:24:37.598Z,4.97
2018-07-06T15:27:05.946Z,5.70
2018-07-06T15:29:34.315Z,4.83
2018-07-06T15:32:02.940Z,5.73
2018-07-06T15:34:31.301Z,5.73
2018-07-06T15:36:59.677Z,5.20
2018-07-06T15:39:27.999Z,4.50
2018-07-06T15:41:56.391Z,4.90
2018-07-06T15:44:24.764Z,5.00
2018-07-06T15:46:53.476Z,5.63
2018-07-06T15:49:22.004Z,5.00
2018-07-06T15:51:50.067Z,4.87
2018-07-06T15:54:18.474Z,6.03
2018-07-06T15:56:46.562Z,5.20
2018-07-06T15:59:14.950Z,4.87
2018-07-06T16:01:43.329Z,5.03
2018-07-06T16:04:11.755Z,5.30
2018-07-06T16:06:40.125Z,5.50
2018-07-06T16:09:08.472Z,4.13
2018-07-06T16:11:36.858Z,4.17
2018-07-06T16:14:05.283Z,4.97
2018-07-06T16:16:33.729Z,4.60
2018-07-06T16:19:02.096Z,5.37
2018-07-06T16:21:30.470Z,4.03
2018-07-06T16:23:58.955Z,5.07
2018-07-06T16:26:27.468Z,4.43
2018-07-06T16:28:55.839Z,4.77
2018-07-06T16:31:24.209Z,4.80
2018-07-06T16:33:52.538Z,5.47
2018-07-06T16:36:20.963Z,5.97
2018-07-06T16:38:49.435Z,5.53
2018-07-06T16:41:17.832Z,7.63
2018-07-06T16:43:46.227Z,6.50
2018-07-06T16:46:15.098Z,4.87
2018-07-06T16:48:44.020Z,4.90
2018-07-06T16:51:12.284Z,5.03
2018-07-06T16:53:40.750Z,4.60
2018-07-06T16:56:09.129Z,4.23
2018-07-06T16:58:37.699Z,4.10
2018-07-06T17:01:06.063Z,4.37
2018-07-06T17:03:34.484Z,4.13
2018-07-06T17:06:02.951Z,5.00
2018-07-06T17:08:31.350Z,4.80
2018-07-06T17:10:59.431Z,5.00
2018-07-06T17:13:27.515Z,4.97
2018-07-06T17:15:55.944Z,4.27
2018-07-06T17:18:24.305Z,3.87
2018-07-06T17:20:52.643Z,3.83
2018-07-06T17:23:21.031Z,3.63
2018-07-06T17:25:49.436Z,4.53
2018-07-06T17:28:17.777Z,4.10
2018-07-06T17:30:45.854Z,5.37
2018-07-06T17:33:13.954Z,4.17
2018-07-06T17:35:42.313Z,4.53
2018-07-06T17:38:10.672Z,4.27
2018-07-06T17:40:38.940Z,4.60
2018-07-06T17:43:07.309Z,4.03
2018-07-06T17:45:35.671Z,4.77
2018-07-06T17:48:04.183Z,4.53
2018-07-06T17:50:33.137Z,5.10
2018-07-06T17:53:01.543Z,4.20
2018-07-06T17:55:29.981Z,4.87
2018-07-06T17:57:58.351Z,2.57
2018-07-06T18:00:26.737Z,3.30
2018-07-06T18:02:55.138Z,2.40
2018-07-06T18:05:23.522Z,3.77
2018-07-06T18:07:51.920Z,3.60
2018-07-06T18:10:21.198Z,3.53
2018-07-06T18:12:49.596Z,3.73
2018-07-06T18:15:18.041Z,4.13
2018-07-06T18:17:46.475Z,3.57
2018-07-06T18:20:15.565Z,3.60
2018-07-06T18:22:43.653Z,4.00
2018-07-06T18:25:11.714Z,3.10
2018-07-06T18:27:39.978Z,3.63
2018-07-06T18:30:08.344Z,4.00
2018-07-06T18:32:36.716Z,3.20
2018-07-06T18:35:05.099Z,3.57
2018-07-06T18:37:33.562Z,3.30
2018-07-06T18:40:01.883Z,2.20
2018-07-06T18:42:30.400Z,2.67
2018-07-06T18:44:58.830Z,4.53
2018-07-06T18:47:27.247Z,2.57
2018-07-06T18:49:55.680Z,3.83
2018-07-06T18:52:24.104Z,3.80
2018-07-06T18:54:52.549Z,2.80
2018-07-06T18:57:20.983Z,2.80
2018-07-06T18:59:49.408Z,3.00
2018-07-06T19:02:17.834Z,3.13
2018-07-06T19:04:46.260Z,3.70
2018-07-06T19:07:14.626Z,2.80
2018-07-06T19:09:43.552Z,3.60
2018-07-06T19:12:11.987Z,2.57
2018-07-06T19:14:40.412Z,3.33
2018-07-06T19:17:09.010Z,3.37
2018-07-06T19:19:37.465Z,3.60
2018-07-06T19:22:06.466Z,4.10
2018-07-06T19:24:34.928Z,3.60
2018-07-06T19:27:03.302Z,4.03
2018-07-06T19:29:32.523Z,3.47
2018-07-06T19:32:00.945Z,3.60
2018-07-06T19:34:29.320Z,3.30
2018-07-06T19:36:58.750Z,4.20
2018-07-06T19:39:27.219Z,4.40
2018-07-06T19:41:55.618Z,2.87
2018-07-06T19:44:24.011Z,4.10
2018-07-06T19:46:52.458Z,4.20
2018-07-06T19:49:20.885Z,3.97
2018-07-06T19:51:49.037Z,4.03
2018-07-06T19:54:17.440Z,3.80
2018-07-06T19:59:20.584Z,4.30
2018-07-06T20:01:48.992Z,4.27
2018-07-06T20:04:17.554Z,4.43
2018-07-06T20:06:45.956Z,4.00
2018-07-06T20:09:15.891Z,4.83
2018-07-06T20:11:44.316Z,4.80
2018-07-06T20:14:13.305Z,4.37
2018-07-06T20:16:41.716Z,4.17
2018-07-06T20:19:10.688Z,4.80
2018-07-06T20:21:39.083Z,4.40
2018-07-06T20:24:07.448Z,3.47
2018-07-06T20:26:35.840Z,4.70
2018-07-06T20:29:04.348Z,3.93
2018-07-06T20:31:32.694Z,4.57
2018-07-06T20:34:01.152Z,4.50
2018-07-06T20:36:29.608Z,4.33
2018-07-06T20:38:57.932Z,4.63
2018-07-06T20:41:26.333Z,5.37
2018-07-06T20:43:54.732Z,4.63
2018-07-06T20:46:23.216Z,3.83
2018-07-06T20:48:51.678Z,4.33
2018-07-06T20:51:20.089Z,5.50
2018-07-06T20:53:48.575Z,6.00
2018-07-06T20:56:19.988Z,6.67
2018-07-06T20:58:48.417Z,4.80
2018-07-06T21:01:16.862Z,4.87
2018-07-06T21:03:45.252Z,5.50
2018-07-06T21:06:13.681Z,5.70
2018-07-06T21:08:42.118Z,5.07
2018-07-06T21:11:10.571Z,5.50
2018-07-06T21:13:38.956Z,4.73
2018-07-06T21:16:07.390Z,4.43
2018-07-06T21:18:35.830Z,5.00
2018-07-06T21:21:04.824Z,5.87
2018-07-06T21:23:33.204Z,4.03
2018-07-06T21:26:02.267Z,5.53
2018-07-06T21:28:30.657Z,5.30
2018-07-06T21:30:59.129Z,6.80
2018-07-06T21:33:27.530Z,6.30
2018-07-06T21:35:56.068Z,4.80
2018-07-06T21:38:24.442Z,4.70
2018-07-06T21:40:52.822Z,5.50
2018-07-06T21:43:21.240Z,4.03
2018-07-06T21:45:49.647Z,5.50
2018-07-06T21:48:18.600Z,6.70
2018-07-06T21:50:47.098Z,5.37
2018-07-06T21:53:15.554Z,4.57
2018-07-06T21:55:43.956Z,4.70
2018-07-06T21:58:12.332Z,5.70
2018-07-06T22:00:41.818Z,5.50
2018-07-06T22:03:11.198Z,7.20
2018-07-06T22:05:40.422Z,6.23
2018-07-06T22:08:09.404Z,5.23
2018-07-06T22:10:38.303Z,6.47
2018-07-06T22:13:07.428Z,6.13
2018-07-06T22:15:42.362Z,6.77
2018-07-06T22:18:11.102Z,6.93
2018-07-06T22:20:39.533Z,7.17
2018-07-06T22:23:07.891Z,6.13
2018-07-06T22:25:36.215Z,8.40
2018-07-06T22:28:04.818Z,6.70
2018-07-06T22:30:33.601Z,7.10
2018-07-06T22:33:02.118Z,8.93
2018-07-06T22:35:30.545Z,6.73
2018-07-06T22:37:58.603Z,6.80
2018-07-06T22:40:26.873Z,6.50
2018-07-06T22:42:55.247Z,6.93
2018-07-06T22:45:23.625Z,8.47
2018-07-06T22:47:52.011Z,9.43
2018-07-06T22:50:20.473Z,10.43
2018-07-06T22:52:48.876Z,9.70
2018-07-06T22:55:17.133Z,9.00
2018-07-06T22:57:45.619Z,9.23
2018-07-06T23:00:14.077Z,9.57
2018-07-06T23:02:42.435Z,9.17
2018-07-06T23:05:12.840Z,8.37
2018-07-06T23:07:41.177Z,9.57
2018-07-06T23:10:09.665Z,9.77
2018-07-06T23:12:38.836Z,7.77
2018-07-06T23:15:07.275Z,8.50
2018-07-06T23:17:35.751Z,9.67
2018-07-06T23:20:04.089Z,6.20
2018-07-06T23:22:43.952Z,6.47
2018-07-06T23:25:12.499Z,7.13
2018-07-06T23:27:40.907Z,6.40
2018-07-06T23:30:09.301Z,6.07
2018-07-06T23:32:37.439Z,7.30
2018-07-06T23:35:05.882Z,4.87
2018-07-06T23:37:34.255Z,6.80
2018-07-06T23:40:02.618Z,5.13
2018-07-06T23:42:30.973Z,6.67
2018-07-06T23:44:59.331Z,6.67
2018-07-06T23:47:27.771Z,4.87
2018-07-06T23:49:56.112Z,6.63
2018-07-06T23:52:24.460Z,6.70
2018-07-06T23:54:52.865Z,7.53
2018-07-06T23:57:21.391Z,8.37
2018-07-06T23:59:49.803Z,8.57
